createdAt,value
2024-01-05T00:07:03.667Z,-18.92
2024-01-05T00:17:07.114Z,-18.92
2024-01-05T00:27:11.686Z,-18.91
2024-01-05T00:37:15.119Z,-18.90
2024-01-05T00:47:19.619Z,-18.90
2024-01-05T00:57:23.988Z,-18.90
2024-01-05T01:07:28.424Z,-18.90
2024-01-05T01:17:31.915Z,-18.91
2024-01-05T01:27:36.648Z,-18.91
2024-01-05T01:37:39.919Z,-18.92
2024-01-05T01:47:46.820Z,-18.92
2024-01-05T01:57:50.474Z,-18.94
2024-01-05T02:07:55.210Z,-18.95
2024-01-05T02:17:58.424Z,-18.95
2024-01-05T02:28:02.905Z,-18.94
2024-01-05T02:38:07.326Z,-18.99
2024-01-05T02:48:12.506Z,-19.00
2024-01-05T02:58:15.912Z,-19.01
2024-01-05T03:08:21.099Z,-19.05
2024-01-05T03:18:25.285Z,-19.06
2024-01-05T03:28:29.874Z,-19.13
2024-01-05T03:38:32.827Z,-19.13
2024-01-05T03:48:37.279Z,-19.17
2024-01-05T03:58:40.434Z,-19.18
2024-01-05T04:08:44.896Z,-19.20
2024-01-05T04:18:48.200Z,-19.23
2024-01-05T04:28:53.933Z,-19.27
2024-01-05T04:38:57.084Z,-19.28
2024-01-05T04:49:01.664Z,-19.29
2024-01-05T04:59:04.694Z,-19.29
2024-01-05T05:09:11.203Z,-19.30
2024-01-05T05:19:14.488Z,-19.31
2024-01-05T05:29:19.833Z,-19.31
2024-01-05T05:39:23.377Z,-19.31
2024-01-05T05:49:28.106Z,-19.32
2024-01-05T05:59:31.731Z,-19.32
2024-01-05T06:09:36.291Z,-19.31
2024-01-05T06:19:39.617Z,-19.32
2024-01-05T06:29:45.184Z,-19.30
2024-01-05T06:39:49.109Z,-19.28
2024-01-05T06:49:54.627Z,-19.27
2024-01-05T06:59:58.223Z,-19.24
2024-01-05T07:10:32.253Z,-19.20
2024-01-05T07:20:40.853Z,-19.19
2024-01-05T07:30:45.702Z,-19.15
2024-01-05T07:40:49.826Z,-19.10
2024-01-05T07:51:01.648Z,-19.06
2024-01-05T08:01:09.483Z,-19.04
2024-01-05T08:47:39.891Z,-18.84
2024-01-05T08:57:51.618Z,-18.87
2024-01-05T09:07:56.473Z,-18.85
2024-01-05T09:17:59.766Z,-18.79
2024-01-05T09:28:07.572Z,-18.74
2024-01-05T09:38:10.720Z,-18.68
2024-01-05T09:48:19.995Z,-18.64
2024-01-05T09:58:23.449Z,-18.61
2024-01-05T10:08:27.984Z,-18.54
2024-01-05T10:18:31.782Z,-18.49
2024-01-05T10:28:39.450Z,-18.48
2024-01-05T10:38:51.528Z,-18.46
2024-01-05T10:49:14.742Z,-18.47
2024-01-05T10:59:21.730Z,-18.46
2024-01-05T11:09:37.813Z,-18.45
2024-01-05T11:20:22.117Z,-18.45
2024-01-05T11:30:42.185Z,-18.45
2024-01-05T11:40:50.698Z,-18.48
2024-01-05T12:14:59.137Z,-18.63
2024-01-05T12:25:02.520Z,-18.68
2024-01-05T12:35:08.552Z,-18.78
2024-01-05T12:45:12.028Z,-18.81
2024-01-05T12:55:29.882Z,-18.88
2024-01-05T13:06:14.159Z,-18.93
2024-01-05T13:16:34.890Z,-18.99
2024-01-05T13:27:14.414Z,-19.10
2024-01-05T13:37:55.546Z,-19.15
2024-01-05T13:48:08.968Z,-19.20
2024-01-05T13:58:41.874Z,-19.33
2024-01-05T14:08:49.088Z,-19.40
2024-01-05T14:19:07.309Z,-19.45
2024-01-05T15:37:21.413Z,-20.27
2024-01-05T15:51:14.008Z,-20.35
2024-01-05T15:59:47.689Z,-20.48
2024-01-05T16:10:09.048Z,-20.59
2024-01-05T16:21:19.919Z,-20.74
2024-01-05T16:31:56.663Z,-20.80
2024-01-05T16:48:30.418Z,-20.94
2024-01-05T17:04:41.428Z,-21.12
2024-01-05T17:15:20.208Z,-21.24
2024-01-05T17:45:27.776Z,-21.40
2024-01-05T17:59:48.890Z,-21.69
2024-01-05T18:30:55.472Z,-21.87
2024-01-05T18:42:13.720Z,-22.09
2024-01-05T18:44:05.474Z,-22.18
2024-01-05T18:54:25.001Z,-22.24
2024-01-05T19:05:52.023Z,-22.33
2024-01-05T19:16:29.984Z,-22.43
2024-01-05T19:27:46.124Z,-22.57
2024-01-05T19:38:23.949Z,-22.67
2024-01-05T19:48:32.708Z,-22.77
2024-01-05T19:58:40.727Z,-22.84
2024-01-05T20:08:43.945Z,-22.89
2024-01-05T20:18:49.640Z,-22.92
2024-01-05T20:28:52.966Z,-22.99
2024-01-05T20:38:59.267Z,-23.03
2024-01-05T20:49:04.069Z,-23.13
2024-01-05T20:59:08.874Z,-23.23
2024-01-05T21:09:13.432Z,-23.27
2024-01-05T21:19:19.547Z,-23.34
2024-01-05T21:29:25.228Z,-23.41
2024-01-05T21:39:31.302Z,-23.50
2024-01-05T21:49:37.147Z,-23.53
2024-01-05T21:59:42.442Z,-23.58
2024-01-05T22:09:48.438Z,-23.64
2024-01-05T22:19:53.120Z,-23.72
2024-01-05T22:29:56.300Z,-23.79
2024-01-05T22:40:01.088Z,-23.86
2024-01-05T22:50:05.344Z,-23.98
2024-01-05T23:00:20.810Z,-24.02
2024-01-05T23:10:27.605Z,-24.10
2024-01-05T23:20:36.949Z,-24.14
2024-01-05T23:30:43.458Z,-24.26
2024-01-05T23:40:51.935Z,-24.30
2024-01-05T23:50:55.403Z,-24.37
